Hlavní strana
METAR-TAF:

METAR-TAF

Letiště :

Verona, Itálie

zeměpisná šířka: 45-23N, zeměpisná délka: 010-52E, výška: 67 m

Aktuální stav počasí

Zpráva byla vytvořena před 38 minutami, v 18:50 UTC
Severoseverozápadní vítr 8 kt
Teplota 21°C
Vlhkost vzduchu 64%
Tlak 1017 hPa
Viditelnost 10 km a více
Skoro jasno ve výšce 3000 ft, Cumulonimbus.
Oblačno až skoro zataženo ve výšce 6000 ft

METAR: LIPX 271850Z 34008KT 9999 FEW030CB BKN060 21/14 Q1017 RETS

Čas: 21:28 (19:28 UTC)


TAF: chybějící

Stav a předpovědi počasí z více než 4 000 letišť (zprávy METAR a TAF).

Červené a žluté tečky na mapě představují dostupné meteorologické stanice.

Když kurzor umístíte na tečku, zobrazí se název stanice.

Pak kliknutím zobrazíte stav a předpověď počasí.

Chcete-li změnit mapu, kliknutím na zelené tlačítko se znaménkem +mapu přiblížíte, kliknutím na zelené tlačítko se znaménkem – mapu oddálíte a kliknutím na zelené šipky přejdete na sousední mapy.


METAR-TAF: